MUGM/NBW METAR and TAF weather

Enter ICAO airport designator
Station Type Date Time Source
MUGM METAR 2019/10/18 10:56 UTC NOAA

MUGM 181056Z 36006KT 9999 FEW025 SCT250 24/23 A2994 RMK SLP137 T02440233


Station Type Date Time Source
MUGM Decoded METAR 2019/10/18 10:56 UTC NOAA

GUANTANAMO BAY, CUBA NAVAL, CU, Cuba (MUGM) 19-55N 075-12W 23M
Oct 18, 2019 - 06:56 AM EDT / 2019.10.18 1056 UTC
Wind: from the N (360 degrees) at 7 MPH (6 KT):0
Visibility: greater than 7 mile(s):0
Sky conditions: partly cloudy
Temperature: 75.9 F (24.4 C)
Dew Point: 73.9 F (23.3 C)
Relative Humidity: 93%
Pressure (altimeter): 29.94 in. Hg (1013 hPa)
ob: MUGM 181056Z 36006KT 9999 FEW025 SCT250 24/23 A2994 RMK SLP137 T02440233
cycle: 11

Station Type Date Time Source
MUGM TAF 2019/10/18 07:09 UTC NOAA

TAF TAF MUGM 1807/1907 34007KT 9999 FEW025 SCT280 QNH2990INS
TEMPO 1817/1821 16010KT T25/1811Z T31/1819Z FN00218

Example: see airport list